SeattleWeather.com

KSEA - Seattle/Metro, Washington, USA
Distance from station: SSW 11mi, 18km
Updated: Tue, 04-Oct-2022 10:53pm PDT
Overcast
Overcast
 Wind from WSW
Wind: WSW 7 mph , 11 km/h
Temperature: 57°F , 14°C
Dew Point: 55°F , 13°C
Humidity: 94%
Barometer: 30.12 inHg , 1020 hPa
Clouds: Overcast
Visibility: 1 1/2 miles , 2.4 km
Cloud details: Overcast 300 ft
2022/10/05 05:53 KSEA 050553Z 25006KT 1 1/2SM OVC003 14/13 A3012 RMK AO2 SFC VIS 7 SLP205 T01390128 10178 20133 51013
KBFI - Seattle/Boeing, Washington, USA
Distance from station: SSW 2mi, 3km
Updated: Tue, 04-Oct-2022 10:53pm PDT
Mostly Cloudy
Mostly Cloudy
 Wind from calm
Wind: Calm
Temperature: 57°F , 14°C
Dew Point: 55°F , 13°C
Humidity: 94%
Barometer: 30.11 inHg , 1019.6 hPa
Clouds: Mostly Cloudy
Visibility: 10 miles , 16 km
Cloud details: Mostly Cloudy 900 ft
2022/10/05 05:53 KBFI 050553Z 00000KT 10SM BKN009 14/13 A3011 RMK AO2 CIG 007V011 SLP196 T01390133 10189 20133 53013
NWS Forecast for Seattle, WA
National Weather Service Forecast for: Seattle, WA
Issued by: National Weather Service Seattle/Tacoma, WA
Updated: Tue, 04-Oct-2022 9:40pm PDT
 
  Wednesday

Wednesday: Partly Sunny
Partly Sunny
Thursday

Thursday: Mostly Sunny
Mostly Sunny
Friday

Friday: Mostly Sunny
Mostly Sunny
Saturday

Saturday: Sunny
Sunny
Sunday

Sunday: Sunny
Sunny
Columbus
Day
Columbus Day: Slight Chance Rain Showers
Slight Chance Rain Showers
Tuesday

Tuesday: Mostly Sunny
Mostly Sunny
  Hi 69 °F Hi 72 °F Hi 74 °F Hi 73 °F Hi 74 °F Hi 70 °F Hi 66 °F
 
Tonight

Tonight: Mostly Cloudy
Mostly Cloudy
Wednesday
Night
Wednesday Night: Partly Cloudy
Partly Cloudy
Thursday
Night
Thursday Night: Mostly Cloudy
Mostly Cloudy
Friday
Night
Friday Night: Mostly Clear
Mostly Clear
Saturday
Night
Saturday Night: Mostly Clear
Mostly Clear
Sunday
Night
Sunday Night: Mostly Clear
Mostly Clear
Monday
Night
Monday Night: Partly Cloudy
Partly Cloudy
 
Lo 55 °F Lo 55 °F ↑ Lo 57 °F Lo 55 °F Lo 55 °F Lo 55 °F Lo 53 °F  

 

Tonight
 
Mostly cloudy, with a low around 55. East wind around 3 mph.
Wednesday
 
Partly sunny, with a high near 69. North northwest wind 2 to 8 mph.
Wednesday Night
 
Partly cloudy. Low around 55, with temperatures rising to around 57 overnight. North northeast wind 5 to 8 mph.
Thursday
 
Mostly sunny, with a high near 72. North wind around 7 mph.
Thursday Night
 
Mostly cloudy, with a low around 57. North northeast wind 2 to 6 mph.
Friday
 
Mostly sunny, with a high near 74.
Friday Night
 
Mostly clear, with a low around 55.
Saturday
 
Sunny, with a high near 73.
Saturday Night
 
Mostly clear, with a low around 55.
Sunday
 
Sunny, with a high near 74.
Sunday Night
 
Mostly clear, with a low around 55.
Columbus Day
 
A slight chance of rain showers between 11am and 5pm. Mostly sunny, with a high near 70.
Monday Night
 
Partly cloudy, with a low around 53.
Tuesday
 
Mostly sunny, with a high near 66.

 

Forecast from NOAA-NWS for Seattle, WA.